Grand Lake, CO

10:48 PM MST on March 01, 2015 (GMT -0700)
Granby Ranch | Change Station
CLOSE
Current Station
Personal Weather Station
Location: Granby, CO
Elevation: 8360 ft
Nearby Weather Stations

Elev 8360 ft 40.05 °N, 105.91 °W | Updated 2 minutes ago

Snow
Snow
23.6 °F
Feels Like 24 °F
N
0.0
Wind Variable Wind from North
Gusts 0.0 mph

Today
High -- | Low -- °F
--% Chance of Precip.
Yesterday
High -- | Low -- °F
Precip. -- in
6:37 AM 5:55 PM
Waxing Gibbous, 89% visible
Pressure 30.07 in
Visibility 4.0 miles
Clouds Scattered Clouds 1600 ft
Scattered Clouds 2400 ft
Overcast 4600 ft
Windchill 24 °F
Dew Point 22 °F
Humidity 94%
Rainfall 0.00 in
Snow Depth Not available.
UV 0 out of 12
Pollen .70 out of 12
Air Quality Not available.
Flu Activity Not available.
METAR K20V 020535Z AUTO 00000KT 4SM -SN SCT016 SCT024 OVC046 M01/M03 A3007 RMK AO2

More Conditions Fewer Conditions

Pressure 30.07 in
Visibility 4.0 miles
Clouds Scattered Clouds 1600 ft
Scattered Clouds 2400 ft
Overcast 4600 ft
Windchill 24 °F
Dew Point 22 °F
Humidity 94%
Rainfall 0.00 in
Snow Depth Not available.
UV 0 out of 12
Pollen .70 out of 12
Air Quality Not available.
Flu Activity Not available.
METAR K20V 020535Z AUTO 00000KT 4SM -SN SCT016 SCT024 OVC046 M01/M03 A3007 RMK AO2

More Conditions Fewer Conditions

10-Day Weather Forecast

Almanac

Astronomy

Mar. 01, 2015 Rise Set
Actual Time
Civil Twilight
Nautical Twilight
Astronomical Twilight
Moon
Length of Visible Light
Length of Day
Tomorrow will be .
, % of the Moon is Illuminated

Today's Extremes

State Highs State Lows

Community

WunderPhotos

Upload Photos

1,801,735 photos uploaded!

WunderBlogs® & News

Nearby

Air Quality

  Air Quality AQ Index Pollutant
Not available.

Snow Depth

Station Depth Elevation

Earthquake Activity

City Distance Mag. Time & Date
Minimum magnitude displayed is 2.5.

Coastal Water Temperatures

Place Temperature

Nearby Weather Stations